Aviation Digital Data Service (ADDS)

Output produced by METARs form (0913 UTC 23 July 2019)
found at http://www.aviationweather.gov/metar/data/
 
Forecast for: BGSF (SONDRE STROMFJOR, GL)
Text: TAF BGSF 230459Z 2306/2412 VRB08KT 9999 FEW060
Forecast period: 0600 UTC 23 July 2019 to 1200 UTC 24 July 2019
Forecast type: FROM: standard forecast or significant change
Winds: variable direction winds at 9 MPH (8 knots; 4.1 m/s)
Visibility: 6 or more miles 10+ km)
Ceiling: at least 12,000 feet AGL
Clouds: few clouds at 6000 feet AGL
Weather: no significant weather forecast for this period
Text: TEMPO 2408/2412 BKN025
Forecast period: 0800 to 1200 UTC 24 July 2019
Forecast type: TEMPORARY: The following changes expected for less than half the time period
Visibility: missing
Ceiling: 2500 feet AGL
Clouds: broken clouds at 2500 feet AGL
Weather: no significant weather forecast for this period